createdAt,value
2018-09-29T00:01:31.550Z,99.90
2018-09-29T00:04:00.041Z,99.90
2018-09-29T00:06:29.276Z,99.90
2018-09-29T00:11:31.402Z,99.90
2018-09-29T00:14:00.031Z,99.90
2018-09-29T00:16:28.631Z,99.90
2018-09-29T00:18:57.130Z,99.90
2018-09-29T00:21:25.688Z,99.90
2018-09-29T00:23:54.177Z,99.90
2018-09-29T00:26:22.739Z,99.90
2018-09-29T00:28:51.260Z,99.90
2018-09-29T00:31:19.787Z,99.90
2018-09-29T00:33:48.258Z,99.90
2018-09-29T00:36:16.817Z,99.90
2018-09-29T00:38:45.536Z,99.90
2018-09-29T00:41:14.164Z,99.90
2018-09-29T00:43:43.404Z,99.90
2018-09-29T00:46:12.023Z,99.90
2018-09-29T00:48:41.145Z,99.90
2018-09-29T00:51:09.905Z,99.90
2018-09-29T00:53:38.504Z,99.90
2018-09-29T00:56:07.146Z,99.90
2018-09-29T00:58:35.692Z,99.90
2018-09-29T01:01:04.392Z,99.90
2018-09-29T01:03:33.131Z,99.90
2018-09-29T01:06:02.086Z,99.90
2018-09-29T01:08:30.815Z,99.90
2018-09-29T01:10:59.560Z,99.90
2018-09-29T01:13:28.944Z,99.90
2018-09-29T01:15:57.529Z,99.90
2018-09-29T01:18:25.989Z,99.90
2018-09-29T01:20:55.160Z,99.90
2018-09-29T01:23:23.836Z,99.90
2018-09-29T01:25:52.470Z,99.90
2018-09-29T01:28:21.094Z,99.90
2018-09-29T01:30:49.668Z,99.90
2018-09-29T01:33:18.179Z,99.90
2018-09-29T01:35:46.829Z,99.90
2018-09-29T01:38:15.320Z,99.90
2018-09-29T01:40:43.898Z,99.90
2018-09-29T01:43:12.513Z,99.90
2018-09-29T01:45:41.160Z,99.90
2018-09-29T01:48:09.603Z,99.90
2018-09-29T01:50:38.112Z,99.90
2018-09-29T01:53:06.830Z,99.90
2018-09-29T01:55:35.424Z,99.90
2018-09-29T01:58:04.006Z,99.90
2018-09-29T02:00:32.489Z,99.90
2018-09-29T02:03:06.233Z,99.90
2018-09-29T02:05:35.032Z,99.90
2018-09-29T02:08:03.706Z,99.90
2018-09-29T02:10:32.439Z,99.90
2018-09-29T02:13:01.251Z,99.90
2018-09-29T02:15:29.755Z,99.90
2018-09-29T02:17:58.315Z,99.90
2018-09-29T02:20:27.585Z,99.90
2018-09-29T02:22:56.397Z,99.90
2018-09-29T02:25:25.275Z,99.90
2018-09-29T02:27:53.817Z,99.90
2018-09-29T02:30:22.634Z,99.90
2018-09-29T02:32:51.552Z,99.90
2018-09-29T02:35:20.311Z,99.90
2018-09-29T02:37:48.903Z,99.90
2018-09-29T02:40:17.385Z,99.90
2018-09-29T02:42:46.252Z,99.90
2018-09-29T02:45:14.831Z,99.90
2018-09-29T02:47:43.413Z,99.90
2018-09-29T02:50:12.017Z,99.90
2018-09-29T02:52:41.217Z,99.90
2018-09-29T02:55:09.866Z,99.90
2018-09-29T02:57:38.468Z,99.90
2018-09-29T03:00:07.145Z,99.90
2018-09-29T03:02:36.156Z,99.90
2018-09-29T03:05:04.762Z,99.90
2018-09-29T03:07:33.511Z,99.90
2018-09-29T03:10:02.565Z,99.90
2018-09-29T03:12:31.172Z,99.90
2018-09-29T03:14:59.665Z,99.90
2018-09-29T03:17:28.168Z,99.90
2018-09-29T03:19:57.428Z,99.90
2018-09-29T03:22:26.131Z,99.90
2018-09-29T03:24:55.464Z,99.90
2018-09-29T03:27:24.680Z,99.90
2018-09-29T03:29:53.152Z,99.90
2018-09-29T03:32:21.672Z,99.90
2018-09-29T03:34:50.242Z,99.90
2018-09-29T03:37:18.847Z,99.90
2018-09-29T03:39:47.640Z,99.90
2018-09-29T03:42:16.369Z,99.90
2018-09-29T03:44:44.937Z,99.90
2018-09-29T03:47:13.809Z,99.90
2018-09-29T03:49:42.342Z,99.90
2018-09-29T03:52:10.982Z,99.90
2018-09-29T03:54:39.443Z,99.90
2018-09-29T03:57:07.999Z,99.90
2018-09-29T03:59:36.686Z,99.90
2018-09-29T04:02:05.888Z,99.90
2018-09-29T04:04:34.476Z,99.90
2018-09-29T04:07:03.041Z,99.90
2018-09-29T04:09:31.572Z,99.90
2018-09-29T04:12:00.828Z,99.90
2018-09-29T04:14:30.129Z,99.90
2018-09-29T04:16:59.242Z,99.90
2018-09-29T04:19:27.776Z,99.90
2018-09-29T04:21:56.274Z,99.90
2018-09-29T04:24:25.489Z,99.90
2018-09-29T04:26:54.115Z,99.90
2018-09-29T04:29:22.769Z,99.90
2018-09-29T04:31:51.581Z,99.90
2018-09-29T04:34:21.067Z,99.90
2018-09-29T04:36:50.024Z,99.90
2018-09-29T04:39:18.518Z,99.90
2018-09-29T04:41:47.073Z,99.90
2018-09-29T04:44:15.689Z,99.90
2018-09-29T04:46:44.360Z,99.90
2018-09-29T04:49:13.042Z,99.90
2018-09-29T04:51:42.339Z,99.90
2018-09-29T04:54:11.020Z,99.90
2018-09-29T04:56:39.571Z,99.90
2018-09-29T04:59:08.129Z,99.90
2018-09-29T05:01:37.356Z,99.90
2018-09-29T05:04:06.341Z,99.90
2018-09-29T05:06:35.770Z,99.90
2018-09-29T05:09:06.000Z,99.90
2018-09-29T05:11:35.412Z,99.90
2018-09-29T05:14:04.084Z,99.90
2018-09-29T05:16:33.330Z,99.90
2018-09-29T05:19:01.978Z,99.90
2018-09-29T05:21:31.389Z,99.90
2018-09-29T05:24:00.497Z,99.90
2018-09-29T05:26:29.284Z,99.90
2018-09-29T05:28:57.897Z,99.90
2018-09-29T05:31:27.259Z,99.90
2018-09-29T05:33:56.361Z,99.90
2018-09-29T05:36:25.010Z,99.90
2018-09-29T05:38:56.409Z,99.90
2018-09-29T05:41:25.036Z,99.90
2018-09-29T05:43:54.645Z,99.90
2018-09-29T05:46:23.597Z,99.90
2018-09-29T05:48:52.134Z,99.90
2018-09-29T05:51:23.116Z,99.90
2018-09-29T05:53:51.755Z,99.90
2018-09-29T05:56:20.253Z,99.90
2018-09-29T05:58:48.966Z,99.90
2018-09-29T06:01:17.571Z,99.90
2018-09-29T06:03:46.223Z,99.90
2018-09-29T06:06:14.916Z,99.90
2018-09-29T06:08:43.519Z,99.90
2018-09-29T06:11:12.149Z,99.90
2018-09-29T06:13:40.728Z,99.90
2018-09-29T06:16:09.593Z,99.90
2018-09-29T06:18:38.061Z,99.90
2018-09-29T06:21:06.744Z,99.90
2018-09-29T06:23:35.911Z,99.90
2018-09-29T06:26:06.383Z,99.90
2018-09-29T06:28:35.273Z,99.90
2018-09-29T06:31:03.933Z,99.90
2018-09-29T06:33:32.492Z,99.90
2018-09-29T06:36:01.391Z,99.90
2018-09-29T06:38:29.892Z,99.90
2018-09-29T06:40:58.468Z,99.90
2018-09-29T06:43:27.023Z,99.90
2018-09-29T06:45:55.742Z,99.90
2018-09-29T06:48:24.244Z,99.90
2018-09-29T06:50:52.900Z,99.90
2018-09-29T06:53:21.640Z,99.90
2018-09-29T06:55:51.105Z,99.90
2018-09-29T06:58:19.901Z,99.90
2018-09-29T07:00:48.505Z,99.90
2018-09-29T07:03:18.033Z,99.90
2018-09-29T07:05:46.975Z,99.90
2018-09-29T07:08:15.629Z,99.90
2018-09-29T07:10:44.608Z,99.90
2018-09-29T07:13:13.276Z,99.90
2018-09-29T07:15:41.953Z,99.90
2018-09-29T07:18:11.024Z,99.90
2018-09-29T07:20:39.749Z,99.90
2018-09-29T07:23:09.489Z,99.90
2018-09-29T07:25:38.364Z,99.90
2018-09-29T07:28:06.951Z,99.90
2018-09-29T07:30:35.729Z,99.90
2018-09-29T07:33:04.356Z,99.90
2018-09-29T07:35:33.738Z,99.90
2018-09-29T07:38:02.861Z,99.90
2018-09-29T07:40:31.744Z,99.90
2018-09-29T07:43:00.340Z,99.90
2018-09-29T07:45:29.170Z,99.90
2018-09-29T07:47:57.845Z,99.90
2018-09-29T07:50:26.478Z,99.90
2018-09-29T07:52:55.307Z,99.90
2018-09-29T07:55:24.541Z,99.90
2018-09-29T07:57:53.249Z,99.90
2018-09-29T08:00:21.849Z,99.90
2018-09-29T08:02:50.561Z,99.90
2018-09-29T08:05:19.700Z,99.90
2018-09-29T08:07:48.176Z,99.90
2018-09-29T08:10:17.449Z,99.90
2018-09-29T08:12:46.039Z,99.90
2018-09-29T08:15:15.734Z,99.90
2018-09-29T08:17:44.583Z,99.90
2018-09-29T08:20:13.835Z,99.90
2018-09-29T08:22:42.995Z,99.90
2018-09-29T08:25:11.782Z,99.90
2018-09-29T08:27:40.439Z,99.90
2018-09-29T08:30:09.070Z,99.90
2018-09-29T08:32:38.075Z,99.90
2018-09-29T08:35:07.362Z,99.90
2018-09-29T08:37:36.180Z,99.90
2018-09-29T08:40:05.265Z,99.90
2018-09-29T08:42:34.764Z,99.90
2018-09-29T08:45:03.623Z,99.90
2018-09-29T08:47:32.159Z,99.90
2018-09-29T08:50:01.552Z,99.90
2018-09-29T08:52:30.190Z,99.90
2018-09-29T08:54:59.043Z,99.90
2018-09-29T08:57:27.772Z,99.90
2018-09-29T08:59:56.491Z,99.90
2018-09-29T09:02:25.024Z,99.90
2018-09-29T09:04:53.995Z,99.90
2018-09-29T09:07:22.845Z,99.90
2018-09-29T09:09:51.489Z,99.90
2018-09-29T09:12:20.073Z,99.90
2018-09-29T09:14:49.475Z,99.90
2018-09-29T09:17:17.998Z,99.90
2018-09-29T09:19:46.605Z,99.90
2018-09-29T09:22:15.228Z,99.90
2018-09-29T09:24:44.498Z,99.90
2018-09-29T09:27:13.044Z,99.90
2018-09-29T09:29:41.809Z,99.90
2018-09-29T09:32:10.637Z,99.90
2018-09-29T09:34:39.851Z,99.90
2018-09-29T09:37:08.582Z,99.90
2018-09-29T09:39:37.239Z,99.90
2018-09-29T09:42:06.049Z,99.90
2018-09-29T09:44:34.842Z,99.90
2018-09-29T09:47:03.698Z,99.90
2018-09-29T09:49:32.294Z,99.90
2018-09-29T09:52:01.034Z,99.90
2018-09-29T09:54:29.751Z,99.90
2018-09-29T09:56:58.732Z,99.90
2018-09-29T09:59:27.935Z,99.90
2018-09-29T10:02:01.826Z,99.90
2018-09-29T10:04:30.517Z,99.90
2018-09-29T10:06:59.677Z,99.90
2018-09-29T10:09:28.399Z,99.90
2018-09-29T10:11:57.681Z,99.90
2018-09-29T10:14:26.264Z,99.90
2018-09-29T10:16:54.874Z,99.90
2018-09-29T10:19:23.455Z,99.90
2018-09-29T10:21:52.441Z,99.90
2018-09-29T10:24:21.845Z,99.90
2018-09-29T10:26:50.673Z,99.70
2018-09-29T10:29:19.329Z,99.90
2018-09-29T10:31:48.399Z,99.90
2018-09-29T10:34:20.362Z,99.60
2018-09-29T10:36:52.463Z,99.90
2018-09-29T10:39:21.388Z,99.90
2018-09-29T10:41:50.267Z,98.70
2018-09-29T10:44:19.660Z,99.50
2018-09-29T10:46:48.215Z,99.90
2018-09-29T10:49:17.338Z,98.90
2018-09-29T10:51:46.354Z,98.30
2018-09-29T10:54:15.283Z,98.70
2018-09-29T10:56:43.912Z,99.70
2018-09-29T10:59:12.742Z,99.30
2018-09-29T11:01:41.510Z,98.60
2018-09-29T11:04:10.177Z,98.90
2018-09-29T11:06:38.992Z,98.70
2018-09-29T11:09:09.864Z,99.60
2018-09-29T11:11:45.244Z,99.70
2018-09-29T11:14:14.071Z,99.90
2018-09-29T11:16:43.852Z,98.80
2018-09-29T11:19:12.569Z,99.60
2018-09-29T11:21:41.309Z,99.30
2018-09-29T11:24:10.033Z,99.90
2018-09-29T11:26:39.560Z,99.00
2018-09-29T11:29:08.122Z,99.90
2018-09-29T11:31:36.824Z,99.20
2018-09-29T11:34:05.795Z,99.10
2018-09-29T11:36:34.470Z,99.30
2018-09-29T11:39:04.656Z,99.10
2018-09-29T11:41:34.067Z,99.80
2018-09-29T11:44:03.122Z,99.90
2018-09-29T11:46:31.832Z,99.20
2018-09-29T11:49:00.563Z,98.40
2018-09-29T11:51:29.206Z,99.00
2018-09-29T11:53:58.339Z,99.20
2018-09-29T11:56:27.361Z,98.70
2018-09-29T11:58:55.977Z,99.20
2018-09-29T12:01:24.775Z,98.40
2018-09-29T12:03:54.100Z,99.90
2018-09-29T12:06:22.835Z,98.80
2018-09-29T12:08:51.465Z,97.80
2018-09-29T12:11:20.392Z,98.80
2018-09-29T12:13:49.043Z,98.60
2018-09-29T12:16:18.214Z,97.60
2018-09-29T12:18:47.423Z,97.80
2018-09-29T12:21:16.224Z,98.10
2018-09-29T12:23:45.003Z,96.80
2018-09-29T12:26:13.748Z,97.20
2018-09-29T12:28:42.576Z,95.60
2018-09-29T12:31:11.931Z,96.20
2018-09-29T12:33:40.761Z,96.10
2018-09-29T12:36:10.354Z,96.50
2018-09-29T12:38:39.581Z,96.20
2018-09-29T12:41:08.362Z,95.80
2018-09-29T12:43:37.302Z,94.30
2018-09-29T12:46:06.755Z,95.40
2018-09-29T12:48:35.439Z,94.90
2018-09-29T12:51:04.376Z,94.10
2018-09-29T12:53:33.642Z,94.80
2018-09-29T12:56:02.286Z,93.50
2018-09-29T12:58:31.749Z,94.10
2018-09-29T13:01:00.348Z,93.70
2018-09-29T13:03:29.595Z,93.90
2018-09-29T13:05:58.655Z,94.20
2018-09-29T13:08:27.303Z,94.60
2018-09-29T13:10:56.211Z,95.80
2018-09-29T13:13:24.983Z,95.70
2018-09-29T13:15:54.592Z,94.80
2018-09-29T13:18:23.800Z,93.50
2018-09-29T13:20:52.425Z,95.70
2018-09-29T13:23:21.197Z,94.90
2018-09-29T13:25:50.228Z,95.60
2018-09-29T13:28:19.081Z,95.00
2018-09-29T13:30:47.630Z,94.20
2018-09-29T13:33:16.407Z,95.10
2018-09-29T13:35:45.101Z,93.70
2018-09-29T13:38:13.757Z,95.10
2018-09-29T13:40:42.796Z,95.10
2018-09-29T13:43:12.164Z,94.80
2018-09-29T13:45:40.742Z,93.90
2018-09-29T13:48:09.647Z,94.40
2018-09-29T13:50:38.272Z,94.40
2018-09-29T13:53:07.243Z,94.00
2018-09-29T13:55:36.000Z,94.40
2018-09-29T13:58:05.009Z,94.70
2018-09-29T14:00:33.514Z,94.20
2018-09-29T14:03:02.185Z,94.20
2018-09-29T14:05:30.902Z,93.50
2018-09-29T14:08:00.660Z,93.00
2018-09-29T14:10:29.573Z,92.80
2018-09-29T14:12:58.685Z,93.80
2018-09-29T14:15:27.340Z,93.00
2018-09-29T14:17:56.051Z,93.60
2018-09-29T14:20:24.703Z,92.90
2018-09-29T14:22:54.118Z,92.50
2018-09-29T14:25:23.641Z,92.70
2018-09-29T14:27:52.253Z,92.90
2018-09-29T14:30:21.629Z,91.80
2018-09-29T14:32:50.187Z,91.30
2018-09-29T14:35:18.892Z,92.80
2018-09-29T14:37:48.437Z,92.10
2018-09-29T14:40:17.516Z,91.60
2018-09-29T14:42:46.542Z,92.00
2018-09-29T14:45:15.342Z,91.90
2018-09-29T14:47:44.185Z,91.70
2018-09-29T14:50:12.805Z,92.50
2018-09-29T14:52:41.682Z,92.10
2018-09-29T14:55:10.186Z,91.90
2018-09-29T14:57:38.713Z,90.70
2018-09-29T15:00:07.542Z,90.00
2018-09-29T15:02:36.181Z,90.40
2018-09-29T15:05:05.840Z,90.20
2018-09-29T15:07:34.659Z,90.40
2018-09-29T15:10:03.863Z,88.30
2018-09-29T15:12:32.511Z,88.40
2018-09-29T15:15:01.112Z,87.60
2018-09-29T15:17:29.998Z,87.50
2018-09-29T15:19:58.819Z,87.10
2018-09-29T15:22:27.515Z,85.80
2018-09-29T15:24:56.792Z,88.50
2018-09-29T15:27:25.792Z,88.00
2018-09-29T15:29:54.814Z,87.60
2018-09-29T15:32:23.399Z,86.70
2018-09-29T15:34:52.248Z,87.10
2018-09-29T15:37:21.053Z,89.40
2018-09-29T15:39:49.605Z,87.70
2018-09-29T15:42:18.388Z,87.90
2018-09-29T15:44:47.514Z,87.30
2018-09-29T15:47:16.026Z,86.00
2018-09-29T15:49:44.780Z,88.10
2018-09-29T15:52:13.696Z,88.10
2018-09-29T15:54:42.330Z,85.40
2018-09-29T15:57:11.016Z,81.40
2018-09-29T15:59:39.990Z,81.60
2018-09-29T16:02:08.832Z,72.80
2018-09-29T16:04:37.533Z,69.50
2018-09-29T16:07:07.725Z,67.60
2018-09-29T16:09:36.687Z,70.70
2018-09-29T16:12:05.388Z,71.30
2018-09-29T16:14:34.295Z,75.00
2018-09-29T16:17:03.429Z,78.00
2018-09-29T16:19:32.985Z,81.10
2018-09-29T16:22:01.865Z,82.80
2018-09-29T16:24:31.082Z,84.50
2018-09-29T16:27:00.087Z,86.50
2018-09-29T16:29:28.814Z,88.00
2018-09-29T16:31:57.554Z,90.00
2018-09-29T16:34:26.202Z,88.90
2018-09-29T16:36:54.951Z,90.10
2018-09-29T16:39:23.754Z,91.80
2018-09-29T16:41:52.369Z,91.10
2018-09-29T16:44:21.150Z,92.10
2018-09-29T16:46:50.502Z,92.80
2018-09-29T16:49:19.634Z,93.10
2018-09-29T16:51:48.584Z,93.90
2018-09-29T16:54:17.320Z,96.70
2018-09-29T16:56:46.228Z,98.20
2018-09-29T16:59:15.433Z,99.50
2018-09-29T17:01:44.060Z,99.90
2018-09-29T17:04:12.937Z,99.90
2018-09-29T17:06:41.671Z,99.90
2018-09-29T17:09:12.188Z,99.90
2018-09-29T17:11:41.502Z,99.90
2018-09-29T17:14:10.863Z,99.90
2018-09-29T17:16:39.617Z,99.90
2018-09-29T17:19:08.450Z,99.90
2018-09-29T17:21:37.112Z,99.90
2018-09-29T17:24:06.020Z,99.90
2018-09-29T17:26:34.665Z,99.90
2018-09-29T17:29:03.499Z,99.90
2018-09-29T17:31:32.217Z,99.90
2018-09-29T17:34:00.916Z,99.90
2018-09-29T17:36:29.590Z,99.90
2018-09-29T17:38:58.521Z,99.90
2018-09-29T17:41:27.240Z,99.90
2018-09-29T17:43:56.173Z,99.90
2018-09-29T17:46:24.827Z,99.90
2018-09-29T17:48:53.664Z,99.90
2018-09-29T17:51:23.300Z,99.90
2018-09-29T17:53:52.679Z,99.90
2018-09-29T17:56:21.571Z,99.90
2018-09-29T17:58:50.859Z,99.90
2018-09-29T18:01:20.426Z,99.90
2018-09-29T18:03:49.422Z,99.90
2018-09-29T18:06:18.078Z,99.90
2018-09-29T18:08:46.771Z,99.90
2018-09-29T18:11:15.357Z,99.90
2018-09-29T18:13:44.427Z,99.90
2018-09-29T18:16:13.604Z,99.90
2018-09-29T18:18:42.733Z,99.90
2018-09-29T18:21:13.024Z,99.90
2018-09-29T18:23:41.628Z,99.90
2018-09-29T18:26:10.439Z,99.90
2018-09-29T18:28:39.652Z,99.90
2018-09-29T18:31:08.883Z,99.90
2018-09-29T18:33:38.701Z,99.90
2018-09-29T18:36:07.441Z,99.90
2018-09-29T18:38:36.638Z,99.90
2018-09-29T18:41:05.937Z,99.90
2018-09-29T18:43:34.934Z,99.90
2018-09-29T18:46:03.816Z,99.90
2018-09-29T18:48:32.878Z,99.90
2018-09-29T18:51:02.569Z,99.90
2018-09-29T18:53:31.764Z,99.90
2018-09-29T18:56:00.720Z,99.90
2018-09-29T18:58:29.449Z,99.90
2018-09-29T19:00:58.120Z,99.90
2018-09-29T19:03:27.104Z,99.90
2018-09-29T19:05:55.962Z,99.90
2018-09-29T19:08:25.039Z,99.90
2018-09-29T19:10:54.644Z,99.90
2018-09-29T19:13:23.631Z,99.90
2018-09-29T19:15:52.512Z,99.90
2018-09-29T19:18:21.381Z,99.90
2018-09-29T19:20:50.240Z,99.90
2018-09-29T19:23:19.285Z,99.90
2018-09-29T19:25:48.229Z,99.90
2018-09-29T19:28:17.218Z,99.90
2018-09-29T19:30:45.841Z,99.90
2018-09-29T19:33:14.988Z,99.90
2018-09-29T19:35:44.358Z,99.90
2018-09-29T19:38:12.983Z,99.90
2018-09-29T19:40:42.129Z,99.90
2018-09-29T19:43:10.759Z,99.90
2018-09-29T19:45:39.877Z,99.90
2018-09-29T19:48:08.698Z,99.90
2018-09-29T19:50:37.401Z,99.90
2018-09-29T19:53:06.575Z,99.90
2018-09-29T19:55:35.513Z,99.90
2018-09-29T19:58:04.371Z,99.90
2018-09-29T20:00:33.480Z,99.90
2018-09-29T20:03:02.335Z,99.90
2018-09-29T20:05:31.431Z,99.90
2018-09-29T20:08:00.867Z,99.90
2018-09-29T20:10:29.799Z,99.90
2018-09-29T20:12:58.979Z,99.90
2018-09-29T20:15:27.977Z,99.90
2018-09-29T20:17:56.865Z,99.90
2018-09-29T20:20:25.761Z,99.90
2018-09-29T20:22:55.109Z,99.90
2018-09-29T20:25:23.834Z,99.90
2018-09-29T20:27:52.493Z,99.90
2018-09-29T20:30:21.330Z,99.90
2018-09-29T20:32:50.444Z,99.90
2018-09-29T20:35:19.064Z,99.90
2018-09-29T20:37:48.051Z,99.90
2018-09-29T20:40:16.822Z,99.90
2018-09-29T20:42:46.907Z,99.90
2018-09-29T20:45:15.749Z,99.90
2018-09-29T20:47:44.427Z,99.90
2018-09-29T20:50:13.611Z,99.90
2018-09-29T20:52:43.053Z,99.90
2018-09-29T20:55:11.735Z,99.90
2018-09-29T20:57:41.068Z,99.90
2018-09-29T21:00:10.648Z,99.90
2018-09-29T21:02:39.718Z,99.90
2018-09-29T21:05:08.782Z,99.90
2018-09-29T21:07:37.804Z,99.90
2018-09-29T21:10:06.664Z,99.90
2018-09-29T21:12:36.159Z,99.90
2018-09-29T21:15:04.824Z,99.90
2018-09-29T21:17:33.953Z,99.90
2018-09-29T21:20:02.819Z,99.90
2018-09-29T21:22:32.627Z,99.90
2018-09-29T21:25:01.732Z,99.90
2018-09-29T21:27:31.108Z,99.90
2018-09-29T21:29:59.716Z,99.90
2018-09-29T21:32:28.418Z,99.90
2018-09-29T21:34:57.238Z,99.90
2018-09-29T21:37:25.831Z,99.90
2018-09-29T21:39:54.977Z,99.90
2018-09-29T21:42:24.480Z,99.90
2018-09-29T21:44:53.519Z,99.90
2018-09-29T21:47:22.226Z,99.90
2018-09-29T21:49:51.654Z,99.90
2018-09-29T21:52:20.420Z,99.90
2018-09-29T21:54:49.159Z,99.90
2018-09-29T21:57:17.724Z,99.90
2018-09-29T21:59:46.745Z,99.90
2018-09-29T22:02:16.095Z,99.90
2018-09-29T22:04:44.712Z,99.90
2018-09-29T22:07:13.351Z,99.90
2018-09-29T22:09:42.053Z,99.90
2018-09-29T22:12:10.899Z,99.90
2018-09-29T22:14:39.772Z,99.90
2018-09-29T22:17:08.708Z,99.90
2018-09-29T22:19:37.721Z,99.90
2018-09-29T22:22:06.892Z,99.90
2018-09-29T22:24:35.768Z,99.90
2018-09-29T22:27:04.527Z,99.90
2018-09-29T22:29:33.680Z,99.90
2018-09-29T22:32:02.836Z,99.90
2018-09-29T22:34:31.534Z,99.90
2018-09-29T22:37:00.370Z,99.90
2018-09-29T22:39:29.579Z,99.90
2018-09-29T22:41:58.513Z,99.90
2018-09-29T22:44:27.932Z,99.90
2018-09-29T22:46:56.490Z,99.90
2018-09-29T22:49:25.506Z,99.90
2018-09-29T22:51:55.674Z,99.90
2018-09-29T22:54:24.220Z,99.90
2018-09-29T22:56:52.980Z,99.90
2018-09-29T22:59:21.718Z,99.90
2018-09-29T23:01:50.232Z,99.90
2018-09-29T23:04:18.884Z,99.90
2018-09-29T23:06:47.442Z,99.90
2018-09-29T23:09:15.932Z,99.90
2018-09-29T23:11:44.609Z,99.90
2018-09-29T23:14:13.175Z,99.90
2018-09-29T23:16:42.057Z,99.90
2018-09-29T23:19:11.163Z,99.90
2018-09-29T23:21:40.434Z,99.90
2018-09-29T23:24:08.986Z,99.90
2018-09-29T23:26:37.523Z,99.90
2018-09-29T23:29:06.473Z,99.90
2018-09-29T23:31:35.614Z,99.90
2018-09-29T23:34:04.201Z,99.90
2018-09-29T23:36:32.897Z,99.90
2018-09-29T23:39:01.461Z,99.90
2018-09-29T23:41:30.239Z,99.90
2018-09-29T23:43:59.433Z,99.90
2018-09-29T23:46:28.779Z,99.90
2018-09-29T23:48:57.336Z,99.90
2018-09-29T23:51:25.863Z,99.90
2018-09-29T23:53:54.448Z,99.90
2018-09-29T23:56:23.140Z,99.90
2018-09-29T23:58:51.805Z,99.90
